Time;durP1;ratioP1;P1;durP2;ratioP2;P2;SDS_P1;SDS_P2;PMS_P1;PMS_P2;Temp;Humidity;BMP_temperature;BMP_pressure;BME280_temperature;BME280_humidity;BME280_pressure;Samples;Min_cycle;Max_cycle;Signal;HPM_P1;HPM_P2
2022/11/23 00:01:31;;;;;;;2.12;1.92;;;;;;;5.20;92.05;97791.78;4292761;33;34818;-84
2022/11/23 00:04:05;;;;;;;0.70;0.70;;;;;;;5.28;91.60;97788.22;4305678;33;34329;-85
2022/11/23 00:06:34;;;;;;;0.75;0.75;;;;;;;5.18;91.64;97786.62;4292742;33;35235;-75
2022/11/23 00:09:03;;;;;;;1.85;1.75;;;;;;;5.24;92.32;97790.84;4304615;33;34184;-84
2022/11/23 00:11:33;;;;;;;3.72;2.53;;;;;;;5.08;91.98;97791.09;4292544;33;33774;-81
2022/11/23 00:14:01;;;;;;;1.15;1.15;;;;;;;5.08;92.72;97787.62;4280853;33;35352;-82
2022/11/23 00:16:29;;;;;;;1.58;1.48;;;;;;;5.27;92.18;97777.91;4305548;33;34461;-83
2022/11/23 00:18:59;;;;;;;0.70;0.70;;;;;;;5.12;92.24;97790.16;4292547;33;33757;-83
2022/11/23 00:21:30;;;;;;;0.60;0.60;;;;;;;4.92;93.20;97797.31;4292490;33;33875;-80
2022/11/23 00:23:58;;;;;;;0.50;0.50;;;;;;;4.90;93.19;97783.59;4304295;33;35079;-82
2022/11/23 00:26:26;;;;;;;1.27;1.23;;;;;;;5.03;92.50;97792.88;4305544;33;34439;-87
2022/11/23 00:28:54;;;;;;;0.90;0.90;;;;;;;4.85;93.03;97785.38;4292307;33;32610;-71
2022/11/23 00:31:26;;;;;;;1.80;1.70;;;;;;;5.07;92.60;97781.63;4304475;33;34595;-79
2022/11/23 00:33:56;;;;;;;1.23;1.20;;;;;;;5.12;92.59;97787.59;4292435;33;34927;-82
2022/11/23 00:36:26;;;;;;;1.20;1.10;;;;;;;5.08;92.22;97775.63;4292563;33;33710;-81
2022/11/23 00:38:54;;;;;;;0.70;0.70;;;;;;;5.06;93.11;97785.06;4305480;33;33438;-83
2022/11/23 00:41:25;;;;;;;1.42;1.35;;;;;;;5.13;92.00;97781.56;4305446;33;33939;-82
2022/11/23 00:43:53;;;;;;;0.50;0.50;;;;;;;5.04;92.50;97793.72;4304299;33;35037;-81
2022/11/23 00:46:26;;;;;;;1.08;1.05;;;;;;;4.93;92.79;97783.56;4305371;33;35264;-81
2022/11/23 00:48:56;;;;;;;1.05;1.05;;;;;;;5.18;91.92;97783.22;4292409;33;33495;-78
2022/11/23 00:51:32;;;;;;;0.95;0.95;;;;;;;5.33;91.37;97783.00;4305667;33;34494;-77
2022/11/23 00:54:04;;;;;;;4.15;3.83;;;;;;;5.01;92.73;97771.41;4292427;33;35308;-82
2022/11/23 00:56:33;;;;;;;0.60;0.60;;;;;;;5.24;91.61;97770.22;4305344;33;35375;-84
2022/11/23 00:59:02;;;;;;;3.42;1.67;;;;;;;5.27;91.10;97770.19;4292290;33;33674;-83
2022/11/23 01:01:34;;;;;;;3.30;1.10;;;;;;;5.18;91.01;97772.91;4305086;33;36105;-81
2022/11/23 01:04:04;;;;;;;0.70;0.70;;;;;;;5.19;90.98;97764.25;4292149;33;34442;-85
2022/11/23 01:06:34;;;;;;;0.90;0.90;;;;;;;5.05;91.99;97782.53;4304055;33;34355;-84
2022/11/23 01:09:05;;;;;;;1.62;1.52;;;;;;;4.98;91.16;97774.03;4292373;33;33793;-79
2022/11/23 01:11:33;;;;;;;1.00;0.80;;;;;;;5.08;91.78;97767.87;4305361;33;33144;-86
2022/11/23 01:14:01;;;;;;;1.05;1.05;;;;;;;5.22;90.98;97769.38;4304000;33;34982;-73
2022/11/23 01:16:37;;;;;;;0.85;0.85;;;;;;;5.08;91.60;97762.72;4304015;33;35232;-83
2022/11/23 01:19:09;;;;;;;1.00;1.00;;;;;;;5.19;90.94;97759.97;4304084;33;33142;-82
2022/11/23 01:21:38;;;;;;;0.60;0.60;;;;;;;4.92;92.61;97748.31;4292422;33;34701;-84
2022/11/23 01:24:09;;;;;;;1.50;0.90;;;;;;;5.11;91.75;97764.38;4303994;33;35150;-74
2022/11/23 01:26:38;;;;;;;0.60;0.60;;;;;;;5.10;90.78;97760.97;4305095;33;34568;-82
2022/11/23 01:29:07;;;;;;;1.33;1.30;;;;;;;5.16;90.99;97743.69;4305184;33;34349;-72
2022/11/23 01:31:39;;;;;;;0.60;0.60;;;;;;;5.04;91.94;97739.56;4304975;33;33976;-72
2022/11/23 01:34:15;;;;;;;0.60;0.60;;;;;;;5.11;90.88;97749.75;4291943;33;34559;-83
2022/11/23 01:36:43;;;;;;;0.68;0.68;;;;;;;5.15;90.39;97760.87;4292214;33;35232;-82
2022/11/23 01:39:11;;;;;;;2.67;2.58;;;;;;;5.13;89.91;97749.72;4303802;33;33354;-73
2022/11/23 01:41:42;;;;;;;0.60;0.60;;;;;;;5.22;89.58;97743.59;4305186;33;34810;-86
2022/11/23 01:44:31;;;;;;;1.35;1.27;;;;;;;5.25;89.93;97748.72;4304925;33;35734;-83
2022/11/23 01:47:01;;;;;;;0.60;0.60;;;;;;;5.16;89.77;97738.53;4305082;33;34398;-84
2022/11/23 01:49:34;;;;;;;0.75;0.75;;;;;;;5.36;89.05;97733.91;4291627;33;32736;-85
2022/11/23 01:52:18;;;;;;;0.50;0.50;;;;;;;5.62;87.57;97735.22;4291950;33;33774;-88
2022/11/23 01:54:49;;;;;;;1.62;1.52;;;;;;;5.64;87.05;97738.63;4303959;33;35944;-86
2022/11/23 01:57:21;;;;;;;0.88;0.88;;;;;;;5.60;87.04;97752.47;4303829;33;35154;-75
2022/11/23 01:59:49;;;;;;;1.55;1.45;;;;;;;5.21;87.70;97729.00;4279979;33;33280;-79
2022/11/23 02:02:18;;;;;;;0.82;0.82;;;;;;;5.34;88.19;97727.91;4304907;33;33901;-84
2022/11/23 02:04:51;;;;;;;0.50;0.50;;;;;;;5.35;87.57;97732.22;4305032;33;35062;-73
2022/11/23 02:07:19;;;;;;;0.75;0.73;;;;;;;5.68;86.84;97719.59;4304921;33;34570;-85
2022/11/23 02:09:48;;;;;;;0.50;0.50;;;;;;;5.11;88.72;97721.37;4291889;33;34203;-72
2022/11/23 02:12:16;;;;;;;1.90;1.08;;;;;;;5.31;88.25;97720.22;4303852;33;34524;-87
2022/11/23 02:14:44;;;;;;;0.70;0.70;;;;;;;5.31;88.06;97727.94;4303736;33;35027;-84
2022/11/23 02:17:12;;;;;;;0.80;0.80;;;;;;;5.02;90.25;97723.25;4291873;33;35289;-83
2022/11/23 02:19:58;;;;;;;1.00;1.00;;;;;;;4.96;90.42;97729.34;4305051;33;33476;-83
2022/11/23 02:22:58;;;;;;;0.60;0.60;;;;;;;4.93;91.07;97724.22;4303744;33;34019;-78
2022/11/23 02:25:31;;;;;;;0.77;0.77;;;;;;;4.89;90.65;97722.59;4303722;33;34996;-85
2022/11/23 02:28:00;;;;;;;0.90;0.90;;;;;;;4.93;91.95;97727.66;4304881;33;35268;-83
2022/11/23 02:30:29;;;;;;;2.92;1.58;;;;;;;4.77;91.88;97736.50;4304581;33;34277;-81
2022/11/23 02:32:57;;;;;;;0.50;0.50;;;;;;;5.24;90.49;97727.22;4279683;33;33163;-82
2022/11/23 02:35:25;;;;;;;1.58;1.48;;;;;;;5.08;90.17;97720.56;4304657;33;35694;-83
2022/11/23 02:37:53;;;;;;;1.00;0.85;;;;;;;5.02;90.37;97720.66;4279847;33;35174;-85
2022/11/23 02:40:29;;;;;;;1.98;1.85;;;;;;;4.84;91.55;97720.06;4304780;33;34243;-84
2022/11/23 02:42:58;;;;;;;0.70;0.70;;;;;;;4.93;91.42;97726.81;4304757;33;33856;-82
2022/11/23 02:45:40;;;;;;;0.60;0.60;;;;;;;4.94;91.29;97719.06;4303801;33;35168;-73
2022/11/23 02:48:08;;;;;;;0.50;0.50;;;;;;;5.16;90.16;97733.38;4304544;33;34455;-71
2022/11/23 02:50:37;;;;;;;2.15;2.03;;;;;;;5.00;90.27;97717.25;4304958;33;34474;-75
2022/11/23 02:53:06;;;;;;;3.03;2.87;;;;;;;5.03;90.67;97718.06;4304753;33;33894;-83
2022/11/23 02:55:34;;;;;;;1.15;1.05;;;;;;;5.25;89.80;97721.16;4304549;33;35096;-85
2022/11/23 02:58:03;;;;;;;1.02;0.98;;;;;;;5.18;89.55;97727.28;4291455;33;35170;-72
2022/11/23 03:00:31;;;;;;;0.80;0.80;;;;;;;5.23;88.92;97729.81;4303328;33;33394;-86
2022/11/23 03:03:01;;;;;;;0.98;0.98;;;;;;;4.86;90.03;97749.25;4303732;33;33904;-83
2022/11/23 03:05:29;;;;;;;0.73;0.73;;;;;;;5.04;89.50;97730.06;4279514;33;34495;-84
2022/11/23 03:07:57;;;;;;;0.60;0.60;;;;;;;4.89;89.82;97727.75;4304387;33;34489;-78
2022/11/23 03:10:25;;;;;;;0.98;0.90;;;;;;;4.81;91.05;97726.97;4303250;33;33470;-85
2022/11/23 03:12:55;;;;;;;0.60;0.60;;;;;;;5.03;89.65;97720.66;4304380;33;33969;-83
2022/11/23 03:15:23;;;;;;;1.30;1.02;;;;;;;5.07;88.76;97732.63;4304269;33;35924;-86
2022/11/23 03:17:52;;;;;;;1.27;1.27;;;;;;;4.88;89.18;97713.97;4291459;33;35363;-83
2022/11/23 03:20:20;;;;;;;0.70;0.70;;;;;;;4.77;90.03;97712.44;4304542;33;33406;-83
2022/11/23 03:22:48;;;;;;;1.90;1.10;;;;;;;4.91;89.89;97708.78;4304476;33;34789;-74
2022/11/23 03:25:17;;;;;;;0.70;0.70;;;;;;;5.08;89.93;97717.97;4304351;33;35940;-77
2022/11/23 03:27:47;;;;;;;0.50;0.50;;;;;;;5.07;89.18;97732.63;4309278;33;33782;-73
2022/11/23 03:30:15;;;;;;;1.45;1.37;;;;;;;5.02;89.55;97731.84;4309168;33;33460;-87
2022/11/23 03:32:44;;;;;;;0.77;0.77;;;;;;;5.07;89.02;97719.72;4309135;33;33734;-84
2022/11/23 03:35:12;;;;;;;0.60;0.60;;;;;;;4.77;90.91;97721.00;4295996;33;35756;-79
2022/11/23 03:37:41;;;;;;;0.90;0.90;;;;;;;5.00;89.70;97715.53;4309051;33;34474;-83
2022/11/23 03:40:09;;;;;;;1.27;1.27;;;;;;;4.80;89.60;97725.25;4308963;33;34569;-83
2022/11/23 03:42:40;;;;;;;0.68;0.68;;;;;;;4.93;89.81;97726.81;4309034;33;34475;-88
2022/11/23 03:45:08;;;;;;;0.60;0.60;;;;;;;4.98;88.92;97719.88;4307543;33;35117;-73
2022/11/23 03:47:36;;;;;;;0.50;0.50;;;;;;;4.98;89.47;97724.16;4296021;33;34505;-82
2022/11/23 03:50:05;;;;;;;0.80;0.80;;;;;;;4.74;90.60;97713.31;4307789;33;33435;-84
2022/11/23 03:52:33;;;;;;;1.05;1.05;;;;;;;5.02;89.84;97720.66;4308649;33;34017;-84
2022/11/23 03:55:02;;;;;;;2.22;1.60;;;;;;;5.02;88.81;97718.09;4307325;33;35807;-83
2022/11/23 03:57:30;;;;;;;1.05;1.05;;;;;;;5.07;88.70;97730.03;4308636;33;34571;-88
2022/11/23 03:59:59;;;;;;;0.50;0.50;;;;;;;5.24;88.10;97731.50;4308785;33;34110;-76
2022/11/23 04:02:28;;;;;;;1.35;1.10;;;;;;;4.97;89.66;97725.88;4308744;33;33427;-81
2022/11/23 04:04:57;;;;;;;1.95;1.85;;;;;;;5.06;88.87;97727.47;4307538;33;36027;-75
2022/11/23 04:07:27;;;;;;;0.75;0.75;;;;;;;5.03;89.16;97730.97;4308608;33;35121;-80
2022/11/23 04:09:55;;;;;;;0.88;0.88;;;;;;;4.83;89.78;97712.34;4308666;33;33583;-83
2022/11/23 04:12:25;;;;;;;0.70;0.70;;;;;;;5.09;88.83;97717.97;4308672;33;33794;-88
2022/11/23 04:14:53;;;;;;;0.55;0.55;;;;;;;4.97;89.75;97723.31;4295254;33;35235;-84
2022/11/23 04:17:21;;;;;;;0.62;0.62;;;;;;;4.76;89.08;97721.87;4308585;33;34600;-77
2022/11/23 04:19:49;;;;;;;0.70;0.70;;;;;;;4.89;89.05;97720.00;4308317;33;33437;-73
2022/11/23 04:22:17;;;;;;;1.02;1.02;;;;;;;5.20;87.70;97737.59;4307392;33;34675;-81
2022/11/23 04:24:46;;;;;;;0.82;0.82;;;;;;;5.13;88.62;97732.53;4308381;33;35067;-79
2022/11/23 04:27:14;;;;;;;0.85;0.85;;;;;;;5.21;88.57;97726.41;4308160;33;34330;-85
2022/11/23 04:29:42;;;;;;;0.82;0.82;;;;;;;5.23;87.87;97747.88;4306983;33;34452;-87
2022/11/23 04:32:10;;;;;;;0.60;0.60;;;;;;;5.10;88.33;97742.91;4308186;33;33857;-85
2022/11/23 04:34:38;;;;;;;14.65;2.15;;;;;;;5.20;88.31;97738.44;4308258;33;35172;-73
2022/11/23 04:37:07;;;;;;;0.68;0.68;;;;;;;5.48;86.95;97733.69;4293585;33;34993;-82
2022/11/23 04:39:40;;;;;;;3.87;3.50;;;;;;;4.98;89.03;97732.75;4304704;33;34163;-83
2022/11/23 04:42:10;;;;;;;1.65;1.55;;;;;;;4.94;89.46;97731.94;4304581;33;33922;-85
2022/11/23 04:44:38;;;;;;;0.50;0.50;;;;;;;4.99;89.27;97734.44;4292381;33;36726;-72
2022/11/23 04:47:08;;;;;;;0.60;0.60;;;;;;;5.01;89.00;97737.00;4305692;33;34366;-84
2022/11/23 04:49:37;;;;;;;1.20;1.08;;;;;;;4.81;90.30;97737.28;4304536;33;34330;-84
2022/11/23 04:52:05;;;;;;;2.80;2.45;;;;;;;5.09;88.71;97737.75;4305518;33;33831;-84
2022/11/23 04:54:34;;;;;;;0.77;0.77;;;;;;;5.13;88.57;97729.97;4292643;33;35068;-87
2022/11/23 04:57:02;;;;;;;0.50;0.50;;;;;;;5.09;88.32;97736.03;4305554;33;34434;-83
2022/11/23 04:59:30;;;;;;;1.35;1.25;;;;;;;5.04;88.78;97732.66;4305347;33;34388;-83
2022/11/23 05:01:59;;;;;;;0.75;0.75;;;;;;;4.92;88.80;97736.28;4292372;33;33861;-75
2022/11/23 05:04:29;;;;;;;0.60;0.60;;;;;;;5.12;88.31;97736.00;4305518;33;34608;-74
2022/11/23 05:06:57;;;;;;;0.70;0.70;;;;;;;5.15;88.08;97735.06;4305270;33;34438;-86
2022/11/23 05:09:25;;;;;;;0.60;0.60;;;;;;;5.12;88.34;97733.41;4305474;33;34264;-84
2022/11/23 05:11:54;;;;;;;0.80;0.80;;;;;;;5.12;87.70;97738.56;4304364;33;33841;-85
2022/11/23 05:14:22;;;;;;;0.50;0.50;;;;;;;4.94;89.12;97741.41;4305135;33;35818;-85
2022/11/23 05:16:50;;;;;;;0.68;0.68;;;;;;;4.98;88.55;97740.50;4303940;33;33814;-73
2022/11/23 05:19:18;;;;;;;2.92;2.78;;;;;;;5.33;87.58;97739.13;4304026;33;33758;-87
2022/11/23 05:21:46;;;;;;;0.70;0.70;;;;;;;5.25;86.75;97738.37;4304298;33;33851;-86
2022/11/23 05:24:14;;;;;;;1.23;1.23;;;;;;;5.19;87.10;97738.47;4305389;33;35157;-82
2022/11/23 05:26:44;;;;;;;1.02;0.98;;;;;;;5.10;87.65;97737.75;4305432;33;35300;-85
2022/11/23 05:29:12;;;;;;;0.85;0.85;;;;;;;4.94;88.19;97738.81;4292206;33;33154;-84
2022/11/23 05:31:40;;;;;;;0.88;0.88;;;;;;;5.07;88.26;97730.03;4305540;33;33907;-72
2022/11/23 05:34:08;;;;;;;0.50;0.50;;;;;;;5.06;88.04;97733.47;4305718;33;35214;-79
2022/11/23 05:36:37;;;;;;;0.60;0.60;;;;;;;5.28;87.44;97728.03;4304262;33;34215;-82
2022/11/23 05:39:09;;;;;;;1.10;1.10;;;;;;;5.13;88.17;97729.09;4305293;33;33475;-82
2022/11/23 05:41:37;;;;;;;0.57;0.57;;;;;;;5.25;87.23;97725.47;4305243;33;33951;-83
2022/11/23 05:44:07;;;;;;;0.65;0.65;;;;;;;5.30;85.99;97726.25;4305309;33;35041;-84
2022/11/23 05:46:35;;;;;;;0.50;0.50;;;;;;;5.14;87.34;97728.22;4305142;33;34502;-83
2022/11/23 05:49:03;;;;;;;0.75;0.75;;;;;;;5.52;85.63;97726.75;4303814;33;33376;-82
2022/11/23 05:51:32;;;;;;;0.80;0.80;;;;;;;5.38;85.82;97726.97;4305333;33;34571;-82
2022/11/23 05:54:01;;;;;;;0.50;0.50;;;;;;;5.69;85.14;97719.56;4303621;33;35872;-81
2022/11/23 05:56:29;;;;;;;2.92;2.53;;;;;;;5.65;85.41;97719.69;4291636;33;34542;-77
2022/11/23 05:59:04;;;;;;;0.70;0.70;;;;;;;5.59;85.05;97733.53;4304080;33;33317;-87
2022/11/23 06:01:33;;;;;;;0.52;0.52;;;;;;;5.47;85.72;97726.84;4291718;33;33268;-83
2022/11/23 06:04:02;;;;;;;0.75;0.70;;;;;;;5.37;86.70;97732.19;4292234;33;35133;-79
2022/11/23 06:06:31;;;;;;;0.52;0.52;;;;;;;5.43;86.75;97726.91;4305040;33;35320;-82
2022/11/23 06:08:59;;;;;;;0.50;0.50;;;;;;;5.40;86.55;97725.25;4304855;33;33775;-81
2022/11/23 06:11:29;;;;;;;1.12;1.08;;;;;;;5.77;83.96;97731.50;4305177;33;34714;-82
2022/11/23 06:13:58;;;;;;;4.03;1.15;;;;;;;5.80;84.13;97737.47;4305088;33;35221;-82
2022/11/23 06:16:26;;;;;;;0.60;0.60;;;;;;;5.62;85.18;97753.28;4303928;33;35323;-83
2022/11/23 06:18:55;;;;;;;0.70;0.70;;;;;;;5.48;86.57;97756.94;4292216;33;34315;-81
2022/11/23 06:21:23;;;;;;;0.60;0.60;;;;;;;5.58;85.62;97756.81;4304844;33;33803;-77
2022/11/23 06:23:51;;;;;;;0.50;0.50;;;;;;;5.30;86.83;97745.16;4303810;33;35025;-74
2022/11/23 06:26:20;;;;;;;0.73;0.73;;;;;;;5.31;86.18;97762.38;4305067;33;35322;-82
2022/11/23 06:28:48;;;;;;;5.22;4.75;;;;;;;5.43;86.76;97753.56;4303565;33;33301;-80
2022/11/23 06:31:16;;;;;;;0.50;0.50;;;;;;;5.43;86.75;97758.72;4303360;33;34821;-86
2022/11/23 06:33:44;;;;;;;0.68;0.68;;;;;;;5.79;85.14;97751.28;4304700;33;35095;-82
2022/11/23 06:36:14;;;;;;;0.88;0.88;;;;;;;5.38;85.81;97760.53;4304584;33;34403;-84
2022/11/23 06:38:42;;;;;;;0.70;0.70;;;;;;;5.53;85.85;97759.44;4306016;33;34305;-81
2022/11/23 06:41:11;;;;;;;1.73;1.62;;;;;;;5.34;85.97;97753.72;4304910;33;34526;-84
2022/11/23 06:43:39;;;;;;;0.70;0.70;;;;;;;5.25;86.72;97761.59;4305044;33;35071;-84
2022/11/23 06:46:07;;;;;;;1.27;1.25;;;;;;;5.46;85.55;97763.84;4304629;33;35208;-81
2022/11/23 06:48:36;;;;;;;0.60;0.60;;;;;;;5.36;86.07;97756.28;4303723;33;33414;-76
2022/11/23 06:51:05;;;;;;;0.65;0.65;;;;;;;5.23;87.43;97753.03;4304917;33;34692;-85
2022/11/23 06:53:35;;;;;;;1.10;1.10;;;;;;;5.08;88.57;97747.22;4304869;33;34686;-82
2022/11/23 06:56:04;;;;;;;0.85;0.85;;;;;;;5.19;88.28;97753.94;4304635;33;34490;-80
2022/11/23 06:58:32;;;;;;;0.75;0.75;;;;;;;5.54;85.95;97765.47;4303567;33;33646;-79
2022/11/23 07:01:02;;;;;;;1.67;1.60;;;;;;;5.33;86.44;97759.78;4303749;33;33991;-75
2022/11/23 07:03:32;;;;;;;1.65;1.55;;;;;;;5.40;87.57;97763.09;4303291;33;35035;-80
2022/11/23 07:06:07;;;;;;;1.98;1.87;;;;;;;5.22;87.54;97756.47;4304764;33;34595;-74
2022/11/23 07:08:42;;;;;;;1.48;1.05;;;;;;;5.51;86.70;97761.22;4279951;33;34277;-82
2022/11/23 07:11:12;;;;;;;0.40;0.40;;;;;;;5.68;85.44;97764.38;4304772;33;34725;-79
2022/11/23 07:13:40;;;;;;;0.98;0.88;;;;;;;5.52;86.68;97768.06;4291114;33;35231;-80
2022/11/23 07:16:08;;;;;;;0.70;0.70;;;;;;;5.38;87.39;97773.44;4304287;33;34493;-80
2022/11/23 07:18:36;;;;;;;0.90;0.90;;;;;;;5.70;85.76;97774.69;4304532;33;33535;-80
2022/11/23 07:21:06;;;;;;;0.60;0.60;;;;;;;5.78;85.62;97767.63;4304499;33;33986;-81
2022/11/23 07:23:39;;;;;;;2.35;2.25;;;;;;;5.48;87.50;97769.84;4304475;33;35897;-80
2022/11/23 07:26:08;;;;;;;0.75;0.75;;;;;;;5.46;88.37;97769.03;4304277;33;34458;-81
2022/11/23 07:28:36;;;;;;;0.50;0.50;;;;;;;5.74;86.81;97772.91;4304140;33;33521;-83
2022/11/23 07:31:05;;;;;;;0.60;0.60;;;;;;;5.70;86.62;97772.09;4304044;33;33889;-82
2022/11/23 07:33:34;;;;;;;0.65;0.65;;;;;;;5.71;86.79;97776.37;4304325;33;34979;-81
2022/11/23 07:36:02;;;;;;;0.52;0.52;;;;;;;5.92;86.25;97779.47;4291226;33;34540;-81
2022/11/23 07:38:31;;;;;;;0.60;0.60;;;;;;;5.63;87.10;97791.13;4304297;33;33668;-81
2022/11/23 07:41:00;;;;;;;0.62;0.62;;;;;;;5.67;87.62;97787.62;4291336;33;33914;-73
2022/11/23 07:43:29;;;;;;;1.25;1.15;;;;;;;5.45;87.55;97780.25;4304322;33;35131;-78
2022/11/23 07:45:58;;;;;;;0.57;0.57;;;;;;;5.95;86.14;97800.06;4302883;33;35184;-82
2022/11/23 07:48:26;;;;;;;3.20;1.70;;;;;;;6.00;85.58;97790.53;4302794;33;33675;-79
2022/11/23 07:51:01;;;;;;;1.70;1.60;;;;;;;5.89;85.83;97804.50;4303886;33;33776;-77
2022/11/23 07:53:29;;;;;;;0.60;0.60;;;;;;;5.98;85.67;97798.34;4302480;33;35093;-80
2022/11/23 07:55:57;;;;;;;0.50;0.50;;;;;;;6.07;84.84;97807.66;4302572;33;34518;-81
2022/11/23 07:58:26;;;;;;;2.55;1.40;;;;;;;6.20;84.43;97806.56;4303808;33;33617;-83
2022/11/23 08:00:54;;;;;;;0.60;0.60;;;;;;;6.08;84.52;97806.78;4290827;33;34001;-83
2022/11/23 08:03:23;;;;;;;3.37;2.80;;;;;;;6.24;83.74;97810.78;4303613;33;35108;-79
2022/11/23 08:05:56;;;;;;;1.02;1.00;;;;;;;6.51;83.40;97818.06;4303773;33;34535;-82
2022/11/23 08:08:24;;;;;;;2.37;2.15;;;;;;;6.11;84.84;97811.91;4290613;33;34262;-83
2022/11/23 08:10:52;;;;;;;2.00;1.40;;;;;;;6.34;84.95;97815.81;4303575;33;33976;-71
2022/11/23 08:13:21;;;;;;;0.82;0.82;;;;;;;6.03;86.54;97808.59;4304740;33;34952;-78
2022/11/23 08:15:50;;;;;;;0.50;0.50;;;;;;;6.35;84.63;97814.91;4305510;33;34531;-82
2022/11/23 08:18:23;;;;;;;0.50;0.50;;;;;;;6.63;83.69;97808.34;4305549;33;34300;-81
2022/11/23 08:20:52;;;;;;;0.60;0.60;;;;;;;6.25;86.03;97807.34;4305641;33;34030;-75
2022/11/23 08:23:20;;;;;;;0.50;0.50;;;;;;;5.99;87.49;97804.38;4305670;33;35769;-81
2022/11/23 08:25:48;;;;;;;1.83;1.73;;;;;;;5.87;88.39;97815.72;4292558;33;34420;-80
2022/11/23 08:28:17;;;;;;;0.50;0.50;;;;;;;6.10;87.00;97814.50;4305437;33;34362;-82
2022/11/23 08:30:45;;;;;;;0.62;0.62;;;;;;;6.43;85.82;97819.06;4287003;33;179057;-83
2022/11/23 08:33:13;;;;;;;1.95;1.77;;;;;;;6.33;86.71;97808.94;4292374;33;34596;-83
2022/11/23 08:35:42;;;;;;;0.73;0.73;;;;;;;6.38;87.26;97814.88;4304414;33;35176;-75
2022/11/23 08:38:10;;;;;;;2.25;2.15;;;;;;;6.60;86.16;97820.47;4297615;33;33653;-82
2022/11/23 08:40:39;;;;;;;5.62;2.05;;;;;;;6.47;86.89;97811.25;4289834;33;33888;-81
2022/11/23 08:43:08;;;;;;;1.02;0.98;;;;;;;6.16;88.36;97819.56;4289814;33;35180;-80
2022/11/23 08:45:36;;;;;;;0.98;0.88;;;;;;;6.61;86.69;97817.00;4291000;33;34473;-74
2022/11/23 08:48:05;;;;;;;1.17;1.08;;;;;;;6.25;88.13;97811.66;4290939;33;34317;-71
2022/11/23 08:50:34;;;;;;;0.50;0.50;;;;;;;6.69;86.67;97816.84;4293159;33;34568;-74
2022/11/23 08:53:02;;;;;;;1.02;1.02;;;;;;;6.54;87.34;97823.19;4306273;33;35078;-76
2022/11/23 08:55:30;;;;;;;0.60;0.60;;;;;;;6.28;87.63;97828.84;4296132;33;35288;-81
2022/11/23 08:57:59;;;;;;;2.12;1.08;;;;;;;6.28;88.87;97826.25;4303782;33;34490;-81
2022/11/23 09:00:28;;;;;;;2.60;2.47;;;;;;;6.38;88.24;97827.78;4300963;33;33860;-84
2022/11/23 09:02:57;;;;;;;2.12;2.03;;;;;;;6.59;87.00;97831.72;4290930;33;35069;-81
2022/11/23 09:05:27;;;;;;;1.45;1.45;;;;;;;6.26;90.10;97834.91;4301496;33;34322;-80
2022/11/23 09:07:59;;;;;;;19.45;13.38;;;;;;;6.24;89.96;97834.06;4303273;33;33424;-76
2022/11/23 09:10:27;;;;;;;3.92;3.62;;;;;;;5.97;91.27;97834.53;4301922;33;33997;-72
2022/11/23 09:12:57;;;;;;;7.57;4.53;;;;;;;6.62;87.82;97840.25;4303190;33;35057;-77
2022/11/23 09:15:25;;;;;;;1.67;1.58;;;;;;;6.36;88.99;97834.72;4300664;33;33304;-78
2022/11/23 09:17:54;;;;;;;1.45;1.35;;;;;;;5.97;91.73;97837.13;4303137;33;33424;-69
2022/11/23 09:20:22;;;;;;;0.80;0.80;;;;;;;5.89;92.25;97830.31;4302610;33;33963;-79
2022/11/23 09:22:54;;;;;;;0.50;0.50;;;;;;;6.23;92.11;97842.72;4301290;33;35007;-80
2022/11/23 09:25:23;;;;;;;0.80;0.80;;;;;;;6.00;92.27;97843.09;4301910;33;34575;-74
2022/11/23 09:27:57;;;;;;;0.80;0.80;;;;;;;6.26;91.37;97836.63;4302784;33;33618;-81
2022/11/23 09:30:26;;;;;;;0.80;0.80;;;;;;;6.46;90.23;97831.09;4290623;33;33914;-78
2022/11/23 09:32:56;;;;;;;1.48;1.40;;;;;;;6.14;91.95;97832.53;4303406;33;35148;-78
2022/11/23 09:35:25;;;;;;;1.60;1.50;;;;;;;6.37;90.45;97831.25;4302441;33;34550;-70
2022/11/23 09:37:58;;;;;;;1.48;1.40;;;;;;;6.72;88.67;97829.72;4303551;33;34026;-71
2022/11/23 09:40:31;;;;;;;0.85;0.85;;;;;;;6.02;92.99;97831.00;4303383;33;33848;-79
2022/11/23 09:43:26;;;;;;;0.55;0.55;;;;;;;6.09;91.38;97829.16;4302523;33;35025;-76
2022/11/23 09:45:55;;;;;;;0.50;0.50;;;;;;;6.49;90.82;97831.03;4301743;33;35168;-70
2022/11/23 09:48:42;;;;;;;0.77;0.77;;;;;;;5.95;92.64;97828.50;4290642;33;33422;-77
2022/11/23 09:51:19;;;;;;;0.57;0.57;;;;;;;5.89;95.01;97825.16;4303402;33;33985;-79
2022/11/23 09:54:03;;;;;;;0.50;0.50;;;;;;;6.20;92.56;97827.25;4276630;33;35110;-71
2022/11/23 09:56:33;;;;;;;1.05;1.05;;;;;;;6.22;93.58;97825.47;4301389;33;34463;-81
2022/11/23 09:59:13;;;;;;;0.70;0.70;;;;;;;6.08;93.58;97822.28;4290522;33;33687;-80
2022/11/23 10:01:41;;;;;;;0.52;0.52;;;;;;;6.20;92.30;97819.50;4299772;33;33746;-80
2022/11/23 10:04:16;;;;;;;3.40;1.95;;;;;;;6.18;93.26;97821.25;4302351;33;34691;-80
2022/11/23 10:06:53;;;;;;;2.40;1.83;;;;;;;6.36;90.95;97824.38;4290459;33;34497;-74
2022/11/23 10:09:28;;;;;;;0.40;0.40;;;;;;;6.47;91.60;97821.59;4290286;33;33037;-80
2022/11/23 10:12:18;;;;;;;0.55;0.55;;;;;;;6.39;91.13;97812.25;4302439;33;34807;-79
2022/11/23 10:15:24;;;;;;;0.80;0.80;;;;;;;6.40;91.00;97820.84;4303081;33;35095;-78
2022/11/23 10:18:04;;;;;;;0.50;0.50;;;;;;;6.23;92.66;97822.03;4302510;33;34368;-79
2022/11/23 10:21:05;;;;;;;0.50;0.50;;;;;;;6.36;91.73;97812.31;4300988;33;33653;-78
2022/11/23 10:23:54;;;;;;;1.00;0.85;;;;;;;6.53;89.93;97817.19;4302616;33;33900;-71
2022/11/23 10:26:31;;;;;;;1.12;1.02;;;;;;;6.70;89.30;97818.56;4290421;33;35234;-74
2022/11/23 10:29:11;;;;;;;;;;;;;;;6.83;89.27;97820.03;4302247;33;35238;-80
2022/11/23 10:31:43;;;;;;;0.52;0.52;;;;;;;6.43;91.19;97815.63;4301808;33;33332;-79
2022/11/23 10:34:14;;;;;;;0.55;0.55;;;;;;;6.67;90.25;97813.44;4288386;33;34111;-79
2022/11/23 10:36:42;;;;;;;0.80;0.80;;;;;;;6.45;91.66;97811.28;4299437;33;34992;-79
2022/11/23 10:39:24;;;;;;;0.40;0.40;;;;;;;6.80;88.52;97809.75;4303342;33;34226;-77
2022/11/23 10:41:58;;;;;;;0.52;0.52;;;;;;;6.76;89.72;97814.13;4290377;33;33383;-79
2022/11/23 10:44:38;;;;;;;0.70;0.70;;;;;;;6.88;89.06;97810.44;4290152;33;34689;-71
2022/11/23 10:47:07;;;;;;;0.77;0.77;;;;;;;6.91;89.40;97807.78;4290209;33;35972;-77
2022/11/23 10:49:35;;;;;;;1.12;1.12;;;;;;;7.05;88.33;97812.66;4303125;33;35286;-77
2022/11/23 10:52:23;;;;;;;0.95;0.95;;;;;;;6.89;90.15;97806.97;4288283;33;33410;-73
2022/11/23 10:54:54;;;;;;;0.60;0.60;;;;;;;7.06;88.31;97810.94;4290200;33;34607;-73
2022/11/23 10:57:42;;;;;;;0.82;0.82;;;;;;;6.63;90.68;97807.50;4289896;33;35946;-72
2022/11/23 11:00:12;;;;;;;0.75;0.75;;;;;;;7.01;89.11;97809.31;4290385;33;34426;-73
2022/11/23 11:02:53;;;;;;;0.60;0.60;;;;;;;7.16;88.50;97813.28;4302980;33;33431;-73
2022/11/23 11:05:34;;;;;;;0.60;0.60;;;;;;;7.02;88.02;97810.12;4279147;33;32634;-77
2022/11/23 11:08:29;;;;;;;0.60;0.60;;;;;;;6.77;90.29;97804.63;4301660;33;35857;-72
2022/11/23 11:11:27;;;;;;;0.77;0.77;;;;;;;7.09;88.87;97808.28;4301943;33;34550;-73
2022/11/23 11:14:13;;;;;;;1.08;0.85;;;;;;;6.86;88.04;97804.44;4290385;33;34526;-75
2022/11/23 11:16:56;;;;;;;0.60;0.60;;;;;;;7.29;87.54;97805.25;4301722;33;33935;-80
2022/11/23 11:19:38;;;;;;;0.62;0.62;;;;;;;7.37;85.93;97811.13;4289404;33;35902;-72
2022/11/23 11:22:34;;;;;;;0.70;0.70;;;;;;;7.19;87.36;97804.63;4289633;33;33922;-81
2022/11/23 11:25:06;;;;;;;0.43;0.43;;;;;;;7.24;87.58;97789.84;4289890;33;33460;-79
2022/11/23 11:27:34;;;;;;;6.43;1.15;;;;;;;6.88;89.46;97797.50;4300841;33;34609;-76
2022/11/23 11:30:05;;;;;;;1.05;1.05;;;;;;;6.80;90.10;97807.16;4314207;33;35075;-78
2022/11/23 11:32:53;;;;;;;1.17;0.98;;;;;;;7.21;88.73;97805.44;4317490;33;34371;-73
2022/11/23 11:35:43;;;;;;;1.37;1.15;;;;;;;7.31;87.99;97806.94;4318760;33;33576;-83
2022/11/23 11:38:23;;;;;;;0.75;0.75;;;;;;;6.61;91.30;97804.94;4305501;33;34810;-85
2022/11/23 11:40:52;;;;;;;0.60;0.60;;;;;;;7.40;87.73;97801.53;4317485;33;35118;-86
2022/11/23 11:43:26;;;;;;;0.50;0.50;;;;;;;7.44;85.38;97812.69;4317519;33;34407;-83
2022/11/23 11:46:14;;;;;;;0.60;0.60;;;;;;;7.53;84.15;97811.63;4312548;33;33522;-74
2022/11/23 11:49:18;;;;;;;1.85;1.75;;;;;;;7.14;87.16;97806.44;4313793;33;33858;-88
2022/11/23 11:51:57;;;;;;;0.73;0.73;;;;;;;7.51;85.35;97803.88;4309284;33;35964;-89
2022/11/23 11:54:50;;;;;;;1.95;1.52;;;;;;;7.45;85.51;97818.69;4304580;33;35288;-73
2022/11/23 11:57:21;;;;;;;1.00;1.00;;;;;;;7.16;89.09;97818.47;4294060;33;33488;-74
2022/11/23 11:59:54;;;;;;;0.80;0.80;;;;;;;7.26;87.44;97823.47;4292048;33;33958;-85
2022/11/23 12:02:56;;;;;;;0.62;0.62;;;;;;;6.80;90.47;97820.09;4304643;33;34731;-88